createdAt,value
2023-02-06T00:00:51.752Z,102819.59
2023-02-06T00:03:20.132Z,102814.59
2023-02-06T00:05:57.638Z,102818.81
2023-02-06T00:08:25.093Z,102812.88
2023-02-06T00:10:51.796Z,102802.56
2023-02-06T00:13:18.314Z,102812.19
2023-02-06T00:15:44.914Z,102813.97
2023-02-06T00:18:11.709Z,102816.03
2023-02-06T00:20:38.423Z,102814.50
2023-02-06T00:23:05.073Z,102822.34
2023-02-06T00:25:31.606Z,102817.88
2023-02-06T00:27:58.119Z,102815.38
2023-02-06T00:30:24.723Z,102824.88
2023-02-06T00:32:51.324Z,102825.28
2023-02-06T00:35:17.963Z,102826.31
2023-02-06T00:37:44.679Z,102830.66
2023-02-06T00:40:11.847Z,102826.56
2023-02-06T00:42:38.288Z,102828.72
2023-02-06T00:45:05.424Z,102832.47
2023-02-06T00:47:31.957Z,102832.69
2023-02-06T00:49:58.437Z,102838.03
2023-02-06T00:52:24.908Z,102836.53
2023-02-06T00:54:51.422Z,102834.63
2023-02-06T00:57:17.945Z,102845.25
2023-02-06T00:59:44.610Z,102842.97
2023-02-06T01:02:11.313Z,102842.19
2023-02-06T01:04:37.882Z,102847.84
2023-02-06T01:07:04.409Z,102849.47
2023-02-06T01:09:31.003Z,102848.53
2023-02-06T01:11:57.758Z,102855.66
2023-02-06T01:14:25.382Z,102860.84
2023-02-06T01:16:51.896Z,102860.84
2023-02-06T01:19:18.433Z,102861.03
2023-02-06T01:21:44.978Z,102862.56
2023-02-06T01:24:11.458Z,102860.22
2023-02-06T01:26:38.075Z,102863.34
2023-02-06T01:29:04.697Z,102861.00
2023-02-06T01:31:31.649Z,102853.38
2023-02-06T01:34:00.166Z,102852.31
2023-02-06T01:36:27.613Z,102850.72
2023-02-06T01:38:54.232Z,102846.78
2023-02-06T01:41:23.101Z,102844.81
2023-02-06T01:44:16.293Z,102847.84
2023-02-06T01:46:48.165Z,102846.09
2023-02-06T01:49:28.433Z,102846.94
2023-02-06T01:51:59.724Z,102854.34
2023-02-06T01:54:26.614Z,102852.94
2023-02-06T01:56:58.808Z,102852.16
2023-02-06T01:59:26.433Z,102845.28
2023-02-06T02:01:53.141Z,102850.47
2023-02-06T02:04:22.571Z,102843.28
2023-02-06T02:07:00.013Z,102837.25
2023-02-06T02:09:26.918Z,102831.41
2023-02-06T02:11:53.490Z,102827.63
2023-02-06T02:14:20.016Z,102826.13
2023-02-06T02:17:41.103Z,102830.09
2023-02-06T02:20:07.614Z,102827.81
2023-02-06T02:22:44.458Z,102837.94
2023-02-06T02:25:42.093Z,102835.00
2023-02-06T02:28:33.549Z,102826.16
2023-02-06T02:31:14.549Z,102820.50
2023-02-06T02:34:15.207Z,102821.66
2023-02-06T02:36:54.435Z,102820.97
2023-02-06T02:39:52.595Z,102806.97
2023-02-06T02:42:25.605Z,102802.63
2023-02-06T02:45:00.157Z,102807.97
2023-02-06T02:47:42.975Z,102813.78
2023-02-06T02:50:11.808Z,102812.97
2023-02-06T02:52:38.265Z,102806.53
2023-02-06T02:55:21.422Z,102814.34
2023-02-06T02:57:51.347Z,102814.25
2023-02-06T03:00:19.730Z,102809.84
2023-02-06T03:02:48.291Z,102816.09
2023-02-06T03:05:20.163Z,102819.19
2023-02-06T03:07:49.453Z,102827.31
2023-02-06T03:10:28.388Z,102832.00
2023-02-06T03:13:16.335Z,102837.59
2023-02-06T03:16:02.333Z,102830.28
2023-02-06T03:19:00.919Z,102840.16
2023-02-06T03:21:29.288Z,102848.19
2023-02-06T03:23:59.062Z,102840.81
2023-02-06T03:26:28.456Z,102840.41
2023-02-06T03:29:01.067Z,102832.78
2023-02-06T03:31:54.057Z,102824.22
2023-02-06T03:34:45.638Z,102835.91
2023-02-06T03:37:12.906Z,102825.72
2023-02-06T03:39:40.160Z,102843.53
2023-02-06T03:42:09.349Z,102823.81
2023-02-06T03:44:41.382Z,102832.66
2023-02-06T03:47:10.684Z,102839.03
2023-02-06T03:49:40.493Z,102833.72
2023-02-06T03:52:10.450Z,102833.00
2023-02-06T03:54:42.832Z,102836.19
2023-02-06T03:57:13.062Z,102842.19
2023-02-06T03:59:39.819Z,102834.78
2023-02-06T04:02:06.836Z,102832.97
2023-02-06T04:04:39.932Z,102844.31
2023-02-06T04:07:20.104Z,102834.81
2023-02-06T04:09:46.630Z,102835.38
2023-02-06T04:12:13.332Z,102838.06
2023-02-06T04:14:39.816Z,102829.75
2023-02-06T04:17:06.820Z,102824.59
2023-02-06T04:19:34.083Z,102827.28
2023-02-06T04:22:01.400Z,102828.56
2023-02-06T04:24:29.933Z,102836.19
2023-02-06T04:26:57.720Z,102838.00
2023-02-06T04:29:24.437Z,102835.44
2023-02-06T04:31:51.366Z,102836.19
2023-02-06T04:34:18.113Z,102838.81
2023-02-06T04:36:44.688Z,102837.19
2023-02-06T04:39:11.242Z,102840.84
2023-02-06T04:41:37.862Z,102835.25
2023-02-06T04:44:04.768Z,102843.69
2023-02-06T04:46:31.370Z,102829.44
2023-02-06T04:48:57.868Z,102829.69
2023-02-06T04:51:24.433Z,102834.09
2023-02-06T04:53:51.055Z,102831.47
2023-02-06T04:56:17.667Z,102830.38
2023-02-06T04:58:44.249Z,102839.66
2023-02-06T05:01:10.980Z,102840.63
2023-02-06T05:03:37.633Z,102840.38
2023-02-06T05:06:04.753Z,102842.50
2023-02-06T05:08:31.514Z,102849.78
2023-02-06T05:10:58.076Z,102843.31
2023-02-06T05:13:26.159Z,102839.53
2023-02-06T05:15:52.822Z,102847.56
2023-02-06T05:18:19.431Z,102839.03
2023-02-06T05:20:46.221Z,102842.38
2023-02-06T05:23:12.806Z,102838.19
2023-02-06T05:25:41.376Z,102849.03
2023-02-06T05:28:08.861Z,102846.59
2023-02-06T05:30:35.939Z,102840.69
2023-02-06T05:33:02.885Z,102839.75
2023-02-06T05:35:29.789Z,102841.03
2023-02-06T05:37:57.739Z,102840.16
2023-02-06T05:40:24.598Z,102837.25
2023-02-06T05:42:51.387Z,102840.22
2023-02-06T05:45:18.109Z,102839.53
2023-02-06T05:47:44.642Z,102835.94
2023-02-06T05:50:11.216Z,102845.78
2023-02-06T05:52:37.675Z,102849.56
2023-02-06T05:55:04.788Z,102845.00
2023-02-06T05:57:31.396Z,102828.13
2023-02-06T05:59:57.895Z,102832.53
2023-02-06T06:02:24.404Z,102831.72
2023-02-06T06:04:51.187Z,102824.88
2023-02-06T06:07:17.759Z,102822.16
2023-02-06T06:09:44.260Z,102818.91
2023-02-06T06:12:10.856Z,102821.47
2023-02-06T06:14:37.487Z,102819.81
2023-02-06T06:17:04.055Z,102817.13
2023-02-06T06:19:30.677Z,102799.78
2023-02-06T06:21:58.334Z,102805.63
2023-02-06T06:24:25.775Z,102802.00
2023-02-06T06:26:52.572Z,102797.91
2023-02-06T06:29:19.167Z,102812.59
2023-02-06T06:31:46.009Z,102821.44
2023-02-06T06:34:12.828Z,102827.25
2023-02-06T06:36:39.691Z,102829.84
2023-02-06T06:39:06.262Z,102824.16
2023-02-06T06:41:33.184Z,102840.63
2023-02-06T06:44:00.361Z,102843.69
2023-02-06T06:46:27.076Z,102838.63
2023-02-06T06:48:53.684Z,102831.47
2023-02-06T06:51:20.513Z,102835.31
2023-02-06T06:53:47.134Z,102826.19
2023-02-06T06:56:15.396Z,102832.34
2023-02-06T06:58:42.587Z,102838.47
2023-02-06T07:01:09.414Z,102839.59
2023-02-06T07:03:36.635Z,102834.47
2023-02-06T07:06:03.753Z,102839.59
2023-02-06T07:08:33.059Z,102841.97
2023-02-06T07:10:59.573Z,102845.00
2023-02-06T07:13:26.240Z,102848.19
2023-02-06T07:15:52.764Z,102849.16
2023-02-06T07:18:19.404Z,102845.84
2023-02-06T07:20:45.946Z,102847.50
2023-02-06T07:23:12.433Z,102847.16
2023-02-06T07:25:39.224Z,102835.19
2023-02-06T07:28:05.809Z,102844.53
2023-02-06T07:30:32.437Z,102847.09
2023-02-06T07:32:59.003Z,102848.81
2023-02-06T07:35:25.866Z,102842.50
2023-02-06T07:37:55.577Z,102848.91
2023-02-06T07:40:22.695Z,102842.13
2023-02-06T07:42:49.298Z,102829.84
2023-02-06T07:45:16.321Z,102825.28
2023-02-06T07:47:43.937Z,102829.88
2023-02-06T07:50:11.217Z,102822.94
2023-02-06T07:52:37.753Z,102831.13
2023-02-06T07:55:04.610Z,102835.19
2023-02-06T07:57:31.684Z,102840.22
2023-02-06T07:59:58.259Z,102840.69
2023-02-06T08:02:24.875Z,102840.84
2023-02-06T08:04:51.438Z,102850.13
2023-02-06T08:07:19.950Z,102847.31
2023-02-06T08:09:46.578Z,102849.38
2023-02-06T08:12:13.114Z,102856.72
2023-02-06T08:14:39.615Z,102859.72
2023-02-06T08:17:07.672Z,102853.09
2023-02-06T08:19:34.243Z,102842.63
2023-02-06T08:22:00.810Z,102846.69
2023-02-06T08:24:27.465Z,102846.66
2023-02-06T08:26:54.002Z,102841.94
2023-02-06T08:29:20.720Z,102833.63
2023-02-06T08:31:47.359Z,102831.41
2023-02-06T08:34:15.157Z,102839.06
2023-02-06T08:36:43.654Z,102842.22
2023-02-06T08:39:14.378Z,102845.56
2023-02-06T08:41:42.600Z,102839.88
2023-02-06T08:44:16.180Z,102841.91
2023-02-06T08:46:44.312Z,102840.34
2023-02-06T08:49:14.278Z,102843.38
2023-02-06T08:51:41.076Z,102840.66
2023-02-06T08:54:11.942Z,102834.38
2023-02-06T08:56:39.311Z,102841.59
2023-02-06T08:59:07.410Z,102839.56
2023-02-06T09:01:36.500Z,102830.75
2023-02-06T09:04:08.668Z,102836.28
2023-02-06T09:06:37.441Z,102823.16
2023-02-06T09:09:04.895Z,102820.56
2023-02-06T09:11:31.622Z,102837.84
2023-02-06T09:14:00.158Z,102832.00
2023-02-06T09:16:28.547Z,102832.19
2023-02-06T09:19:01.434Z,102824.59
2023-02-06T09:21:33.701Z,102833.84
2023-02-06T09:24:06.709Z,102833.00
2023-02-06T09:26:40.556Z,102832.63
2023-02-06T09:29:12.744Z,102836.53
2023-02-06T09:31:41.658Z,102838.56
2023-02-06T09:34:09.322Z,102838.00
2023-02-06T09:36:36.764Z,102845.81
2023-02-06T09:39:07.696Z,102829.91
2023-02-06T09:41:45.119Z,102823.75
2023-02-06T09:44:18.615Z,102818.41
2023-02-06T09:46:52.023Z,102828.53
2023-02-06T09:49:28.199Z,102827.78
2023-02-06T09:52:30.541Z,102822.16
2023-02-06T09:55:12.647Z,102818.47
2023-02-06T09:58:06.227Z,102815.78
2023-02-06T10:00:51.054Z,102818.84
2023-02-06T10:03:28.762Z,102815.47
2023-02-06T10:06:14.000Z,102815.56
2023-02-06T10:08:46.706Z,102812.22
2023-02-06T10:11:22.665Z,102805.97
2023-02-06T10:13:58.098Z,102811.91
2023-02-06T10:16:36.856Z,102807.03
2023-02-06T10:19:11.601Z,102801.00
2023-02-06T10:21:42.529Z,102788.28
2023-02-06T10:24:29.865Z,102783.78
2023-02-06T10:27:01.180Z,102777.72
2023-02-06T10:29:31.673Z,102784.88
2023-02-06T10:32:16.685Z,102792.78
2023-02-06T10:34:52.179Z,102788.88
2023-02-06T10:37:40.225Z,102788.53
2023-02-06T10:40:16.146Z,102780.81
2023-02-06T10:43:02.863Z,102784.31
2023-02-06T10:45:43.952Z,102782.56
2023-02-06T10:48:29.353Z,102776.34
2023-02-06T10:51:16.607Z,102766.88
2023-02-06T10:53:50.414Z,102761.75
2023-02-06T10:56:20.414Z,102759.94
2023-02-06T10:58:53.494Z,102751.28
2023-02-06T11:01:26.373Z,102757.09
2023-02-06T11:04:03.636Z,102743.25
2023-02-06T11:06:30.623Z,102739.63
2023-02-06T11:08:57.362Z,102747.97
2023-02-06T11:11:32.257Z,102745.50
2023-02-06T11:14:06.637Z,102741.06
2023-02-06T11:16:36.000Z,102733.56
2023-02-06T11:19:15.694Z,102726.19
2023-02-06T11:21:42.547Z,102733.50
2023-02-06T11:24:11.823Z,102729.34
2023-02-06T11:27:03.197Z,102730.38
2023-02-06T11:29:35.785Z,102719.69
2023-02-06T11:32:04.997Z,102712.16
2023-02-06T11:34:55.259Z,102708.34
2023-02-06T11:37:40.417Z,102716.88
2023-02-06T11:40:18.925Z,102711.38
2023-02-06T11:43:12.938Z,102706.59
2023-02-06T11:45:40.954Z,102707.16
2023-02-06T11:48:34.355Z,102706.59
2023-02-06T11:51:01.048Z,102698.63
2023-02-06T11:53:28.088Z,102701.19
2023-02-06T11:56:02.019Z,102698.38
2023-02-06T11:58:30.316Z,102697.09
2023-02-06T12:01:00.569Z,102696.78
2023-02-06T12:03:31.993Z,102688.25
2023-02-06T12:06:03.878Z,102680.78
2023-02-06T12:08:45.583Z,102684.06
2023-02-06T12:11:27.950Z,102673.09
2023-02-06T12:13:59.449Z,102683.22
2023-02-06T12:16:27.698Z,102667.09
2023-02-06T12:18:57.632Z,102671.13
2023-02-06T12:21:38.664Z,102661.75
2023-02-06T12:24:24.655Z,102667.13
2023-02-06T12:26:53.638Z,102665.06
2023-02-06T12:29:33.468Z,102662.25
2023-02-06T12:32:14.789Z,102666.63
2023-02-06T12:34:54.010Z,102663.97
2023-02-06T12:37:31.993Z,102669.66
2023-02-06T12:40:00.322Z,102672.56
2023-02-06T12:42:59.119Z,102657.88
2023-02-06T12:45:39.897Z,102665.59
2023-02-06T12:48:25.052Z,102655.75
2023-02-06T12:51:05.676Z,102652.53
2023-02-06T12:53:42.360Z,102646.81
2023-02-06T12:56:27.868Z,102653.63
2023-02-06T12:59:14.765Z,102638.09
2023-02-06T13:02:19.375Z,102648.56
2023-02-06T13:04:47.134Z,102631.41
2023-02-06T13:07:17.470Z,102631.16
2023-02-06T13:09:51.584Z,102631.75
2023-02-06T13:12:26.892Z,102643.16
2023-02-06T13:15:02.536Z,102627.81
2023-02-06T13:17:42.466Z,102641.56
2023-02-06T13:20:17.360Z,102648.44
2023-02-06T13:23:12.066Z,102644.19
2023-02-06T13:25:38.913Z,102641.00
2023-02-06T13:28:21.636Z,102631.34
2023-02-06T13:31:07.069Z,102626.56
2023-02-06T13:33:48.879Z,102635.31
2023-02-06T13:36:41.757Z,102631.16
2023-02-06T13:39:34.954Z,102633.38
2023-02-06T13:42:23.731Z,102631.31
2023-02-06T13:44:51.616Z,102630.13
2023-02-06T13:47:25.245Z,102632.72
2023-02-06T13:50:02.784Z,102621.78
2023-02-06T13:53:06.811Z,102624.88
2023-02-06T13:56:02.434Z,102626.06
2023-02-06T13:58:47.710Z,102638.75
2023-02-06T14:01:23.142Z,102640.84
2023-02-06T14:03:51.230Z,102628.84
2023-02-06T14:06:26.767Z,102639.22
2023-02-06T14:09:18.249Z,102624.91
2023-02-06T14:12:20.092Z,102621.44
2023-02-06T14:15:11.004Z,102619.03
2023-02-06T14:17:46.669Z,102616.16
2023-02-06T14:20:48.262Z,102622.38
2023-02-06T14:23:29.711Z,102614.16
2023-02-06T14:26:05.258Z,102608.16
2023-02-06T14:28:40.847Z,102614.03
2023-02-06T14:31:27.121Z,102603.88
2023-02-06T14:34:06.177Z,102617.00
2023-02-06T14:37:06.328Z,102610.44
2023-02-06T14:39:41.115Z,102614.78
2023-02-06T14:42:24.811Z,102620.63
2023-02-06T14:45:00.733Z,102625.69
2023-02-06T14:47:40.031Z,102611.69
2023-02-06T14:50:08.476Z,102611.22
2023-02-06T14:52:36.385Z,102608.63
2023-02-06T14:55:42.237Z,102616.66
2023-02-06T14:58:46.473Z,102599.19
2023-02-06T15:01:19.452Z,102605.47
2023-02-06T15:03:48.770Z,102602.06
2023-02-06T15:06:29.430Z,102599.81
2023-02-06T15:08:56.081Z,102595.47
2023-02-06T15:11:25.403Z,102587.13
2023-02-06T15:13:54.917Z,102592.25
2023-02-06T15:16:22.472Z,102593.56
2023-02-06T15:18:49.148Z,102587.22
2023-02-06T15:21:19.116Z,102594.47
2023-02-06T15:24:10.376Z,102586.75
2023-02-06T15:26:53.324Z,102592.00
2023-02-06T15:29:26.869Z,102580.06
2023-02-06T15:31:57.994Z,102588.19
2023-02-06T15:34:25.947Z,102595.63
2023-02-06T15:36:53.341Z,102599.56
2023-02-06T15:39:20.746Z,102601.16
2023-02-06T15:41:50.396Z,102599.56
2023-02-06T15:44:36.214Z,102604.34
2023-02-06T15:47:05.122Z,102605.41
2023-02-06T15:49:43.603Z,102605.41
2023-02-06T15:52:15.325Z,102611.72
2023-02-06T15:54:44.964Z,102609.63
2023-02-06T15:57:40.584Z,102606.44
2023-02-06T16:00:23.693Z,102603.56
2023-02-06T16:02:52.187Z,102603.28
2023-02-06T16:05:27.714Z,102602.22
2023-02-06T16:07:54.904Z,102601.44
2023-02-06T16:10:28.674Z,102605.41
2023-02-06T16:12:57.406Z,102611.19
2023-02-06T16:15:37.127Z,102608.03
2023-02-06T16:18:25.453Z,102616.47
2023-02-06T16:20:52.348Z,102627.00
2023-02-06T16:23:43.414Z,102629.13
2023-02-06T16:26:20.263Z,102626.72
2023-02-06T16:29:13.897Z,102627.56
2023-02-06T16:31:44.756Z,102624.88
2023-02-06T16:34:30.177Z,102627.53
2023-02-06T16:36:59.378Z,102624.38
2023-02-06T16:39:25.988Z,102632.78
2023-02-06T16:41:54.282Z,102631.75
2023-02-06T16:44:20.968Z,102638.63
2023-02-06T16:46:48.545Z,102629.91
2023-02-06T16:49:18.634Z,102634.38
2023-02-06T16:51:46.525Z,102633.09
2023-02-06T16:54:23.357Z,102632.28
2023-02-06T16:56:50.575Z,102635.41
2023-02-06T16:59:17.810Z,102645.97
2023-02-06T17:01:44.432Z,102643.59
2023-02-06T17:04:10.989Z,102635.69
2023-02-06T17:06:37.678Z,102635.94
2023-02-06T17:09:09.017Z,102640.69
2023-02-06T17:11:36.841Z,102643.38
2023-02-06T17:14:03.712Z,102648.06
2023-02-06T17:16:31.224Z,102656.47
2023-02-06T17:18:57.827Z,102651.97
2023-02-06T17:21:25.510Z,102649.09
2023-02-06T17:23:52.476Z,102640.00
2023-02-06T17:26:21.586Z,102641.69
2023-02-06T17:28:49.449Z,102642.75
2023-02-06T17:31:16.705Z,102644.00
2023-02-06T17:33:43.556Z,102645.84
2023-02-06T17:36:15.501Z,102654.28
2023-02-06T17:38:42.123Z,102654.25
2023-02-06T17:41:08.907Z,102647.66
2023-02-06T17:43:37.317Z,102645.34
2023-02-06T17:46:05.710Z,102639.91
2023-02-06T17:48:36.653Z,102641.16
2023-02-06T17:51:05.517Z,102643.75
2023-02-06T17:53:32.250Z,102636.78
2023-02-06T17:56:06.881Z,102636.28
2023-02-06T17:58:34.094Z,102647.59
2023-02-06T18:01:00.792Z,102642.00
2023-02-06T18:03:27.382Z,102656.81
2023-02-06T18:06:01.554Z,102654.06
2023-02-06T18:08:29.159Z,102650.34
2023-02-06T18:10:56.505Z,102655.91
2023-02-06T18:13:24.479Z,102647.44
2023-02-06T18:15:53.678Z,102647.38
2023-02-06T18:18:21.666Z,102655.56
2023-02-06T18:20:48.913Z,102647.22
2023-02-06T18:23:15.930Z,102646.81
2023-02-06T18:25:43.554Z,102650.56
2023-02-06T18:28:13.870Z,102642.13
2023-02-06T18:30:41.939Z,102650.22
2023-02-06T18:33:09.045Z,102652.91
2023-02-06T18:35:40.423Z,102652.56
2023-02-06T18:38:10.047Z,102648.41
2023-02-06T18:40:38.687Z,102655.28
2023-02-06T18:43:06.752Z,102656.31
2023-02-06T18:45:37.096Z,102638.94
2023-02-06T18:48:05.646Z,102632.13
2023-02-06T18:50:32.251Z,102640.00
2023-02-06T18:52:59.204Z,102645.31
2023-02-06T18:55:26.170Z,102637.84
2023-02-06T18:57:53.995Z,102630.09
2023-02-06T19:00:22.458Z,102645.75
2023-02-06T19:02:50.024Z,102645.97
2023-02-06T19:05:17.167Z,102637.97
2023-02-06T19:07:48.399Z,102645.38
2023-02-06T19:10:16.213Z,102647.97
2023-02-06T19:12:43.615Z,102657.13
2023-02-06T19:15:10.880Z,102660.22
2023-02-06T19:17:37.817Z,102661.53
2023-02-06T19:20:07.105Z,102663.19
2023-02-06T19:22:37.623Z,102664.00
2023-02-06T19:25:05.735Z,102676.16
2023-02-06T19:27:32.275Z,102679.13
2023-02-06T19:29:58.971Z,102684.81
2023-02-06T19:32:28.544Z,102696.34
2023-02-06T19:34:55.390Z,102702.56
2023-02-06T19:37:21.984Z,102707.81
2023-02-06T19:39:48.681Z,102707.56
2023-02-06T19:42:16.941Z,102716.72
2023-02-06T19:44:43.931Z,102722.91
2023-02-06T19:47:10.665Z,102711.16
2023-02-06T19:49:38.031Z,102720.41
2023-02-06T19:52:04.729Z,102731.91
2023-02-06T19:54:31.390Z,102747.72
2023-02-06T19:56:57.963Z,102754.09
2023-02-06T19:59:26.846Z,102744.22
2023-02-06T20:01:56.288Z,102753.19
2023-02-06T20:04:25.703Z,102755.06
2023-02-06T20:06:53.789Z,102749.41
2023-02-06T20:09:21.081Z,102753.72
2023-02-06T20:11:49.104Z,102746.41
2023-02-06T20:14:17.213Z,102742.47
2023-02-06T20:16:44.652Z,102733.00
2023-02-06T20:19:20.987Z,102735.88
2023-02-06T20:21:51.571Z,102731.75
2023-02-06T20:24:22.166Z,102729.22
2023-02-06T20:26:52.944Z,102744.53
2023-02-06T20:29:26.910Z,102751.00
2023-02-06T20:31:54.747Z,102749.47
2023-02-06T20:34:23.062Z,102749.69
2023-02-06T20:36:50.659Z,102740.03
2023-02-06T20:39:18.167Z,102741.97
2023-02-06T20:41:45.845Z,102749.91
2023-02-06T20:44:13.929Z,102747.63
2023-02-06T20:46:41.530Z,102734.72
2023-02-06T20:49:13.802Z,102741.84
2023-02-06T20:51:40.878Z,102747.97
2023-02-06T20:54:07.987Z,102742.63
2023-02-06T20:56:34.489Z,102723.16
2023-02-06T20:59:01.601Z,102722.72
2023-02-06T21:01:30.756Z,102722.56
2023-02-06T21:04:00.009Z,102728.84
2023-02-06T21:06:28.105Z,102735.97
2023-02-06T21:09:00.249Z,102731.28
2023-02-06T21:11:33.020Z,102742.00
2023-02-06T21:14:03.052Z,102740.31
2023-02-06T21:16:31.518Z,102744.97
2023-02-06T21:18:59.204Z,102742.63
2023-02-06T21:21:26.519Z,102741.69
2023-02-06T21:23:57.452Z,102743.78
2023-02-06T21:26:25.432Z,102745.38
2023-02-06T21:28:52.964Z,102744.00
2023-02-06T21:31:25.494Z,102752.09
2023-02-06T21:33:52.636Z,102769.59
2023-02-06T21:36:21.049Z,102753.75
2023-02-06T21:38:47.783Z,102747.09
2023-02-06T21:41:17.211Z,102746.94
2023-02-06T21:43:44.625Z,102744.47
2023-02-06T21:46:12.985Z,102744.19
2023-02-06T21:48:40.636Z,102741.69
2023-02-06T21:51:15.761Z,102748.56
2023-02-06T21:53:43.517Z,102762.06
2023-02-06T21:56:15.354Z,102767.41
2023-02-06T21:58:42.033Z,102769.31
2023-02-06T22:01:17.741Z,102765.22
2023-02-06T22:03:45.646Z,102761.88
2023-02-06T22:06:13.642Z,102737.78
2023-02-06T22:08:47.941Z,102745.94
2023-02-06T22:11:17.326Z,102738.28
2023-02-06T22:13:44.693Z,102743.66
2023-02-06T22:16:13.452Z,102746.38
2023-02-06T22:18:40.667Z,102755.59
2023-02-06T22:21:16.287Z,102761.72
2023-02-06T22:23:44.320Z,102767.31
2023-02-06T22:26:13.046Z,102767.97
2023-02-06T22:28:40.746Z,102754.59
2023-02-06T22:31:09.728Z,102760.31
2023-02-06T22:33:36.945Z,102755.44
2023-02-06T22:36:09.409Z,102751.88
2023-02-06T22:38:36.425Z,102754.59
2023-02-06T22:41:05.858Z,102736.09
2023-02-06T22:43:35.965Z,102744.44
2023-02-06T22:46:03.133Z,102747.63
2023-02-06T22:48:29.803Z,102753.13
2023-02-06T22:50:57.098Z,102743.09
2023-02-06T22:53:30.191Z,102745.34
2023-02-06T22:56:20.400Z,102746.09
2023-02-06T22:58:48.053Z,102753.56
2023-02-06T23:01:16.226Z,102752.75
2023-02-06T23:03:42.938Z,102757.53
2023-02-06T23:06:11.906Z,102759.66
2023-02-06T23:08:39.691Z,102749.25
2023-02-06T23:11:07.499Z,102750.78
2023-02-06T23:13:35.047Z,102754.72
2023-02-06T23:16:02.258Z,102752.09
2023-02-06T23:18:29.488Z,102762.47
2023-02-06T23:21:01.275Z,102771.03
2023-02-06T23:23:28.678Z,102764.72
2023-02-06T23:25:56.328Z,102773.38
2023-02-06T23:28:24.487Z,102769.25
2023-02-06T23:30:52.221Z,102762.72
2023-02-06T23:33:18.989Z,102766.25
2023-02-06T23:35:45.574Z,102765.88
2023-02-06T23:38:12.538Z,102765.16
2023-02-06T23:40:39.544Z,102765.06
2023-02-06T23:43:06.556Z,102772.59
2023-02-06T23:45:33.674Z,102767.91
2023-02-06T23:48:00.296Z,102770.66
2023-02-06T23:50:27.174Z,102764.84
2023-02-06T23:52:53.715Z,102762.91
2023-02-06T23:55:20.685Z,102750.84
2023-02-06T23:57:47.382Z,102754.16
